首页
METAR-TAF:

METAR-TAF

机场 :

布里斯班機場

布里斯班, 澳大利亚

纬度: 27-23S, 经度: 153-06E, 海拔: 4米

当前天气观测

该预报发布于23分钟前的14:30 UTC
风速6节,风向南转西南
温度 16°C
湿度 94%
气压 1024 hPa
能见度10公里或以上
少量云层高于3400英尺
散云层高于9700英尺

METAR: YBBN 271430Z 20006KT 9999 FEW034 SCT097 16/15 Q1024 RF00/0/000/2

时间: 00:53 (14:53 UTC)

预报

该预报发布于3小时和48分钟前的11:05 UTC
预报有效从27日的 12点(UTC)到 28日的 18点(UTC)
风速7节,风向南转西南
能见度10公里或以上
少量云层高于2500英尺
从 28日的 0200点(UTC)
风速10节,风向东转东南
能见度10公里或以上
散云层高于3000英尺
小阵雨
从 28日的 0900点(UTC)
风速7节,风向南转西南
能見度: 5000
散云层高于2500英尺
散云层高于1500英尺
小阵雨, 阵雨,

TAF: YBBN 271105Z 2712/2818 21007KT 9999 FEW025 FM280200 12010KT 9999 -SHRA SCT030 FM280900 20007KT 9999 -SHRA SCT025 INTER 2803/2808 5000 SHRA SCT015

超过4000个机场的气象观测和天气预报(METAR&TAF报告)。

可查询的气象台以黄色和红色小点在地图上表示。

将鼠标移到小点上方,可查看气象台名称。

然后点击查看天气观测和预报。

如需切换地图:点击带黑十字的绿色按钮放大地图;点击带横线的绿色按钮缩小地图;或者点击绿色箭头查看邻近地区的地图。


METAR-TAF: